Time;durP1;ratioP1;P1;durP2;ratioP2;P2;SDS_P1;SDS_P2;PMS_P1;PMS_P2;Temp;Humidity;BMP_temperature;BMP_pressure;BME280_temperature;BME280_humidity;BME280_pressure;Samples;Min_cycle;Max_cycle;Signal;HPM_P1;HPM_P2
2021/01/05 06:14:07;;;;;;;36.27;19.20;;;;;;;1.04;82.19;100671.33;1741501;78;949142;-59
2021/01/05 06:16:36;;;;;;;34.83;18.25;;;;;;;1.17;82.05;100672.41;1672113;84;21538;-59
2021/01/05 06:19:04;;;;;;;36.48;18.07;;;;;;;1.15;81.83;100676.80;1651492;83;21158;-59
2021/01/05 06:21:33;;;;;;;39.03;19.48;;;;;;;1.20;81.74;100689.00;1689486;83;21199;-59
2021/01/05 06:24:01;;;;;;;30.97;17.37;;;;;;;1.15;81.37;100687.55;1678609;82;21818;-60
2021/01/05 06:26:29;;;;;;;35.03;17.85;;;;;;;1.16;81.29;100686.19;1684150;82;21642;-59
2021/01/05 06:28:57;;;;;;;32.95;18.30;;;;;;;1.21;81.13;100693.23;1701334;83;21583;-60
2021/01/05 06:31:26;;;;;;;32.50;15.48;;;;;;;1.21;81.13;100693.23;1677170;81;21642;-59
2021/01/05 06:33:54;;;;;;;31.85;16.10;;;;;;;1.24;80.85;100693.11;1704603;82;21210;-59
2021/01/05 06:36:23;;;;;;;33.40;16.60;;;;;;;1.23;80.70;100687.55;1678595;85;21591;-60
2021/01/05 06:38:52;;;;;;;31.90;17.15;;;;;;;1.20;80.63;100686.89;1662273;85;21625;-61
2021/01/05 06:41:20;;;;;;;35.73;17.40;;;;;;;1.17;80.66;100686.56;1674452;85;21172;-60
2021/01/05 06:43:48;;;;;;;34.60;19.17;;;;;;;1.22;80.80;100701.34;1701409;83;21617;-60
2021/01/05 06:46:17;;;;;;;36.65;18.80;;;;;;;1.23;80.54;100701.72;1682043;85;21792;-60
2021/01/05 06:48:45;;;;;;;34.23;18.07;;;;;;;1.20;80.36;100696.73;1667836;84;21215;-58
2021/01/05 06:51:14;;;;;;;34.50;19.67;;;;;;;1.17;80.30;100693.45;1669881;85;21204;-61
2021/01/05 06:53:43;;;;;;;35.92;19.52;;;;;;;1.11;80.36;100689.43;1665792;85;21744;-60
2021/01/05 06:56:13;;;;;;;46.05;23.90;;;;;;;1.09;80.31;100689.97;1687535;83;21643;-60
2021/01/05 06:58:42;;;;;;;36.83;19.92;;;;;;;1.05;80.30;100682.00;1668248;85;21242;-59
2021/01/05 07:01:10;;;;;;;36.20;18.65;;;;;;;1.03;80.46;100681.25;1655152;84;21726;-59
2021/01/05 07:03:38;;;;;;;93.52;51.15;;;;;;;1.08;80.52;100678.84;1657767;85;21225;-59
2021/01/05 07:06:06;;;;;;;42.38;22.95;;;;;;;1.10;80.39;100677.47;1669259;85;22872;-59
2021/01/05 07:08:35;;;;;;;36.83;20.50;;;;;;;1.07;80.58;100672.48;1689917;84;21187;-58
2021/01/05 07:11:03;;;;;;;37.00;18.82;;;;;;;1.09;80.60;100670.66;1701223;83;21219;-59
2021/01/05 07:13:31;;;;;;;40.73;22.05;;;;;;;1.05;80.56;100669.12;1682376;84;21671;-59
2021/01/05 07:16:00;;;;;;;56.92;35.95;;;;;;;1.06;80.59;100666.52;1668530;85;21203;-59
2021/01/05 07:18:28;;;;;;;54.10;36.70;;;;;;;1.08;80.65;100667.72;1656379;85;21237;-59
2021/01/05 07:20:56;;;;;;;58.17;38.48;;;;;;;1.08;80.65;100667.72;1683954;84;21220;-59
2021/01/05 07:23:25;;;;;;;72.25;42.98;;;;;;;1.13;80.63;100668.79;1657019;86;21219;-59
2021/01/05 07:25:53;;;;;;;88.47;51.85;;;;;;;1.11;80.63;100669.30;1690239;83;21943;-59
2021/01/05 07:28:22;;;;;;;65.92;36.73;;;;;;;1.07;80.60;100665.59;1691660;84;21321;-59
2021/01/05 07:30:50;;;;;;;90.80;52.83;;;;;;;1.06;80.68;100664.39;1684613;84;21599;-59
2021/01/05 07:33:18;;;;;;;71.10;41.98;;;;;;;1.02;80.64;100670.13;1684759;84;21181;-59
2021/01/05 07:35:48;;;;;;;45.10;27.30;;;;;;;1.05;80.58;100662.24;1685837;84;21222;-60
2021/01/05 07:38:17;;;;;;;45.10;24.85;;;;;;;1.08;80.56;100653.10;1685664;84;21607;-59
2021/01/05 07:40:45;;;;;;;43.83;23.27;;;;;;;1.08;80.56;100653.10;1684054;84;21599;-60
2021/01/05 07:43:13;;;;;;;54.88;32.88;;;;;;;1.09;80.30;100657.80;1702484;83;21178;-59
2021/01/05 07:45:41;;;;;;;45.17;26.00;;;;;;;1.06;80.16;100657.50;1643989;86;21155;-60
2021/01/05 07:48:10;;;;;;;40.80;23.55;;;;;;;1.09;80.25;100652.64;1639062;86;21637;-60
2021/01/05 07:50:39;;;;;;;42.73;24.18;;;;;;;1.09;80.25;100652.64;1644121;87;21686;-60
2021/01/05 07:53:07;;;;;;;56.92;34.27;;;;;;;1.13;80.15;100650.77;1665566;85;21254;-60
2021/01/05 07:55:37;;;;;;;59.08;36.45;;;;;;;1.12;80.15;100647.37;1671294;84;21722;-59
2021/01/05 07:58:05;;;;;;;45.70;25.52;;;;;;;1.14;80.24;100648.57;1682558;84;21590;-61
2021/01/05 08:00:34;;;;;;;47.23;23.30;;;;;;;1.16;80.25;100656.59;1679444;84;21585;-59
2021/01/05 08:03:02;;;;;;;43.60;24.27;;;;;;;1.15;80.11;100652.80;1667945;85;21191;-59
2021/01/05 08:05:30;;;;;;;38.10;19.40;;;;;;;1.12;80.07;100654.23;1677661;85;21674;-59
2021/01/05 08:07:59;;;;;;;37.50;20.15;;;;;;;1.12;79.87;100647.37;1682153;84;22510;-59
2021/01/05 08:10:34;;;;;;;36.17;19.77;;;;;;;1.13;79.86;100643.05;1667062;83;21668;-59
2021/01/05 08:13:05;;;;;;;42.50;19.57;;;;;;;1.08;79.52;100641.98;1662768;85;21571;-60
2021/01/05 08:15:35;;;;;;;40.03;22.77;;;;;;;1.03;79.67;100641.36;1657411;85;21268;-59
2021/01/05 08:18:06;;;;;;;42.65;22.55;;;;;;;1.01;79.74;100636.75;1641972;86;21303;-59
2021/01/05 08:20:34;;;;;;;44.40;21.37;;;;;;;0.96;79.82;100637.42;1629114;86;21389;-59
2021/01/05 08:23:03;;;;;;;39.23;21.50;;;;;;;0.93;79.84;100640.13;1640325;86;21677;-59
2021/01/05 08:25:32;;;;;;;38.15;18.82;;;;;;;0.95;80.00;100635.30;1642430;85;21197;-59
2021/01/05 08:28:01;;;;;;;36.35;20.52;;;;;;;0.95;80.06;100638.33;1646270;86;21601;-59
2021/01/05 08:30:34;;;;;;;32.30;18.52;;;;;;;0.95;80.08;100635.76;1659932;84;21202;-59
2021/01/05 08:33:06;;;;;;;36.33;19.92;;;;;;;1.02;79.91;100630.23;1638355;85;21352;-59
2021/01/05 08:35:35;;;;;;;35.60;19.67;;;;;;;1.04;79.63;100628.41;1653843;84;21175;-59
2021/01/05 08:38:04;;;;;;;39.65;19.48;;;;;;;1.08;79.65;100626.53;1646558;85;21527;-59
2021/01/05 08:40:34;;;;;;;39.10;19.40;;;;;;;1.14;79.38;100621.55;1640833;86;21217;-59
2021/01/05 08:43:05;;;;;;;35.95;18.30;;;;;;;1.15;79.28;100628.35;1631669;85;21269;-58
2021/01/05 08:45:34;;;;;;;37.25;19.00;;;;;;;1.18;79.15;100623.04;1651674;85;21180;-61
2021/01/05 08:48:02;;;;;;;40.43;20.27;;;;;;;1.17;78.94;100620.09;1657630;85;21190;-60
2021/01/05 08:50:32;;;;;;;39.60;20.82;;;;;;;1.15;79.06;100621.46;1662693;85;21211;-59
2021/01/05 08:53:06;;;;;;;42.98;22.75;;;;;;;1.16;79.01;100619.27;1640237;84;21199;-59
2021/01/05 08:55:38;;;;;;;40.33;21.33;;;;;;;1.21;78.93;100610.86;1632442;87;21643;-60
2021/01/05 08:58:06;;;;;;;39.42;20.48;;;;;;;1.16;78.70;100613.28;1620599;86;21665;-60
2021/01/05 09:00:35;;;;;;;38.48;21.30;;;;;;;1.15;78.94;100613.74;1661384;84;21203;-60
2021/01/05 09:03:04;;;;;;;35.63;19.87;;;;;;;1.12;78.90;100614.33;1684966;83;21122;-58
2021/01/05 09:05:34;;;;;;;41.10;21.75;;;;;;;1.07;79.18;100609.43;1674885;83;21203;-59
2021/01/05 09:08:03;;;;;;;41.60;20.68;;;;;;;1.06;79.18;100603.45;1639843;85;21206;-59
2021/01/05 09:10:34;;;;;;;38.25;20.50;;;;;;;1.02;79.27;100603.67;1645188;85;21186;-60
2021/01/05 09:13:02;;;;;;;41.65;21.50;;;;;;;1.06;79.45;100603.91;1642680;85;21221;-59
2021/01/05 09:15:30;;;;;;;36.03;20.40;;;;;;;1.13;79.33;100598.01;1625209;87;21691;-58
2021/01/05 09:18:02;;;;;;;38.48;21.42;;;;;;;1.20;79.48;100592.93;1664421;84;21646;-61
2021/01/05 09:20:29;;;;;;;43.98;22.17;;;;;;;1.27;79.29;100596.41;1659422;85;21656;-58
2021/01/05 09:22:57;;;;;;;39.83;21.82;;;;;;;1.32;79.02;100595.72;1658714;84;21182;-59
2021/01/05 09:25:26;;;;;;;38.50;21.68;;;;;;;1.31;78.97;100597.92;1637826;86;21412;-59
2021/01/05 09:27:54;;;;;;;35.92;19.10;;;;;;;1.35;78.81;100599.87;1655523;84;21252;-59
2021/01/05 09:30:22;;;;;;;38.85;21.95;;;;;;;1.38;78.74;100589.89;1684649;84;21570;-58
2021/01/05 09:32:51;;;;;;;35.52;19.00;;;;;;;1.35;78.67;100590.86;1681997;83;21178;-59
2021/01/05 09:35:19;;;;;;;31.90;17.60;;;;;;;1.25;78.21;100597.40;1687053;84;21749;-59
2021/01/05 09:37:49;;;;;;;33.65;17.02;;;;;;;1.25;78.21;100597.40;1684434;84;21655;-59
2021/01/05 09:40:18;;;;;;;34.90;18.32;;;;;;;1.13;78.13;100600.58;1678585;83;21760;-59
2021/01/05 09:42:46;;;;;;;30.70;16.62;;;;;;;1.08;78.33;100595.19;1652308;85;21338;-58
2021/01/05 09:45:15;;;;;;;33.33;16.32;;;;;;;1.08;78.33;100595.19;1683601;84;21187;-60
2021/01/05 09:47:43;;;;;;;31.30;17.30;;;;;;;1.08;78.21;100600.34;1642104;85;21239;-59
2021/01/05 09:50:12;;;;;;;33.95;17.92;;;;;;;1.06;78.25;100607.31;1648833;86;21635;-59
2021/01/05 09:52:40;;;;;;;31.45;16.77;;;;;;;1.04;78.35;100604.42;1662633;85;21200;-58
2021/01/05 09:55:09;;;;;;;32.20;18.10;;;;;;;1.05;78.35;100605.63;1658793;85;21478;-58
2021/01/05 09:57:38;;;;;;;34.25;18.50;;;;;;;1.05;78.45;100609.94;1648575;85;21205;-59
2021/01/05 10:00:09;;;;;;;30.10;16.77;;;;;;;1.21;78.43;100601.02;1680740;82;21561;-60
2021/01/05 10:02:37;;;;;;;32.42;16.95;;;;;;;1.21;78.43;100601.02;1653480;83;21604;-59
2021/01/05 10:05:07;;;;;;;30.62;16.37;;;;;;;1.22;78.25;100603.52;1685153;83;21194;-59
2021/01/05 10:07:35;;;;;;;32.30;17.55;;;;;;;1.17;78.23;100608.51;1689832;83;21626;-59
2021/01/05 10:12:43;;;;;;;34.60;18.98;;;;;;;1.05;78.29;100608.20;1687578;83;21522;-59
2021/01/05 10:15:13;;;;;;;36.73;20.12;;;;;;;1.04;78.66;100602.67;1673375;83;21824;-59
2021/01/05 10:17:41;;;;;;;40.48;20.35;;;;;;;1.08;78.73;100604.66;1690771;83;21211;-60
2021/01/05 10:20:10;;;;;;;36.33;19.50;;;;;;;1.17;78.73;100601.62;1667796;83;21673;-60
2021/01/05 10:22:39;;;;;;;36.58;18.75;;;;;;;1.22;78.57;100606.09;1684476;83;21220;-60
2021/01/05 10:25:09;;;;;;;33.70;19.15;;;;;;;1.32;78.42;100595.72;1706668;83;21226;-60
2021/01/05 10:27:37;;;;;;;33.30;19.37;;;;;;;1.38;78.07;100599.73;1689010;83;21252;-60
2021/01/05 10:30:10;;;;;;;34.55;20.17;;;;;;;1.35;77.82;100595.55;1688316;83;21174;-60
2021/01/05 10:32:42;;;;;;;34.95;19.98;;;;;;;1.38;77.98;100594.58;1695600;82;21272;-60
2021/01/05 10:35:09;;;;;;;35.63;21.55;;;;;;;1.42;77.85;100590.92;1697457;83;21907;-59
2021/01/05 10:37:38;;;;;;;39.63;20.60;;;;;;;1.37;77.75;100577.47;1664785;84;21563;-61
2021/01/05 10:40:08;;;;;;;38.25;19.92;;;;;;;1.33;77.84;100575.50;1676420;84;21209;-60
2021/01/05 10:42:43;;;;;;;40.95;22.77;;;;;;;1.35;77.82;100571.55;1657921;84;21186;-59
2021/01/05 10:45:25;;;;;;;34.65;20.85;;;;;;;1.37;77.81;100568.47;1791235;77;22257;-59
2021/01/05 10:47:53;;;;;;;36.68;19.75;;;;;;;1.41;77.79;100562.69;1777549;80;21565;-59
2021/01/05 10:50:24;;;;;;;36.03;19.35;;;;;;;1.41;77.79;100562.69;1794998;80;21558;-58
2021/01/05 10:52:52;;;;;;;35.80;19.60;;;;;;;1.48;77.65;100554.56;1784106;80;21127;-58
2021/01/05 10:55:21;;;;;;;36.35;19.73;;;;;;;1.56;77.35;100554.19;1777762;81;21707;-58
2021/01/05 10:57:50;;;;;;;34.18;18.15;;;;;;;1.63;77.27;100550.83;1796466;79;21170;-60
2021/01/05 11:00:19;;;;;;;37.35;20.45;;;;;;;1.65;77.18;100549.00;1795354;79;21232;-59
2021/01/05 11:02:47;;;;;;;41.18;21.00;;;;;;;1.66;77.06;100550.66;1790708;79;21578;-59
2021/01/05 11:05:17;;;;;;;35.92;20.25;;;;;;;1.72;76.98;100549.88;1794449;80;21114;-60
2021/01/05 11:07:53;;;;;;;33.75;19.00;;;;;;;1.78;76.83;100548.27;1780149;80;21161;-60
2021/01/05 11:10:21;;;;;;;37.17;19.77;;;;;;;1.73;76.65;100535.25;1772919;79;21622;-57
2021/01/05 11:12:50;;;;;;;32.00;18.42;;;;;;;1.64;76.58;100536.58;1744833;81;21162;-60
2021/01/05 11:15:18;;;;;;;34.35;19.25;;;;;;;1.69;76.94;100527.33;1755678;81;22324;-61
2021/01/05 11:17:47;;;;;;;35.33;20.25;;;;;;;1.69;76.62;100516.56;1751055;81;21147;-58
2021/01/05 11:20:15;;;;;;;33.40;19.62;;;;;;;1.67;76.74;100527.39;1755667;81;21141;-60
2021/01/05 11:22:44;;;;;;;34.70;19.00;;;;;;;1.62;76.69;100519.09;1721462;81;21220;-60
2021/01/05 11:25:16;;;;;;;32.15;18.15;;;;;;;1.58;76.71;100519.70;1745732;81;21660;-59
2021/01/05 11:27:44;;;;;;;30.80;16.82;;;;;;;1.60;76.75;100517.86;1759589;81;21176;-61
2021/01/05 11:30:21;;;;;;;34.40;17.60;;;;;;;1.62;76.45;100513.94;1771140;81;21169;-61
2021/01/05 11:32:50;;;;;;;32.25;17.70;;;;;;;1.67;76.59;100519.66;1755843;81;21307;-61
2021/01/05 11:35:20;;;;;;;31.33;17.80;;;;;;;1.75;76.58;100525.72;1743727;81;21407;-60
2021/01/05 11:37:50;;;;;;;32.65;17.87;;;;;;;1.74;76.25;100520.16;1760441;81;21138;-60
2021/01/05 11:40:22;;;;;;;33.15;18.12;;;;;;;1.74;76.25;100520.16;1735053;81;21157;-63
2021/01/05 11:42:50;;;;;;;33.67;17.62;;;;;;;1.67;76.23;100523.52;1755211;81;21199;-62
2021/01/05 11:45:22;;;;;;;32.78;17.15;;;;;;;1.65;76.36;100522.78;1682032;83;21142;-62
2021/01/05 11:47:52;;;;;;;33.83;17.50;;;;;;;1.66;76.21;100512.02;1699674;83;21639;-61
2021/01/05 11:50:21;;;;;;;34.65;18.92;;;;;;;1.56;76.24;100517.67;1697465;83;21200;-60
2021/01/05 11:52:49;;;;;;;32.53;17.42;;;;;;;1.51;76.36;100507.23;1678282;85;21130;-62
2021/01/05 11:55:18;;;;;;;37.33;17.98;;;;;;;1.50;76.52;100508.97;1677949;85;21226;-61
2021/01/05 11:57:46;;;;;;;33.42;17.10;;;;;;;1.51;76.46;100505.48;1694841;84;21144;-58
2021/01/05 12:00:20;;;;;;;37.08;19.75;;;;;;;1.54;76.59;100505.77;1703680;83;21552;-58
2021/01/05 12:02:48;;;;;;;40.25;22.73;;;;;;;1.57;76.62;100509.48;1703848;83;21184;-57
2021/01/05 12:05:18;;;;;;;34.85;18.55;;;;;;;1.68;76.73;100510.19;1704034;83;22124;-59
2021/01/05 12:07:47;;;;;;;35.68;18.87;;;;;;;1.74;76.66;100514.58;1704576;84;21584;-60
2021/01/05 12:10:15;;;;;;;32.23;17.30;;;;;;;1.78;76.19;100507.05;1684941;84;21369;-59
2021/01/05 12:12:44;;;;;;;34.08;17.55;;;;;;;1.76;76.29;100499.86;1675581;85;21216;-60
2021/01/05 12:15:13;;;;;;;31.93;17.45;;;;;;;1.76;76.29;100499.86;1676057;85;21180;-60
2021/01/05 12:17:42;;;;;;;31.90;17.55;;;;;;;1.75;76.38;100502.53;1676054;85;21165;-60
2021/01/05 12:20:12;;;;;;;34.27;18.95;;;;;;;1.75;76.38;100502.53;1675835;85;21180;-59
2021/01/05 12:22:40;;;;;;;34.48;18.17;;;;;;;1.73;76.34;100496.14;1676097;85;21593;-60
2021/01/05 12:25:10;;;;;;;42.10;22.58;;;;;;;1.73;76.50;100501.76;1675652;85;21184;-61
2021/01/05 12:27:39;;;;;;;85.17;43.85;;;;;;;1.73;76.51;100500.47;1648383;86;21948;-60
2021/01/05 12:30:11;;;;;;;63.87;35.83;;;;;;;1.70;76.60;100501.94;1648692;87;21471;-60
2021/01/05 12:32:39;;;;;;;35.65;19.15;;;;;;;1.78;76.89;100495.45;1651475;85;21207;-60
2021/01/05 12:35:09;;;;;;;30.92;15.43;;;;;;;1.78;76.89;100495.45;1642099;85;21205;-60
2021/01/05 12:37:38;;;;;;;28.40;15.60;;;;;;;1.77;76.70;100488.64;1649883;85;21182;-61
2021/01/05 12:40:08;;;;;;;34.95;17.73;;;;;;;1.75;76.76;100482.75;1651015;85;21757;-64
2021/01/05 12:42:36;;;;;;;51.77;26.12;;;;;;;1.71;76.84;100479.95;1648612;87;21222;-60
2021/01/05 12:45:06;;;;;;;46.15;21.97;;;;;;;1.69;76.92;100479.21;1656318;85;21168;-62
2021/01/05 12:47:34;;;;;;;36.13;20.17;;;;;;;1.69;76.92;100479.21;1675605;84;21251;-60
2021/01/05 12:50:04;;;;;;;30.25;16.17;;;;;;;1.72;77.13;100481.61;1676129;85;21199;-64
2021/01/05 12:52:34;;;;;;;29.32;15.60;;;;;;;1.74;77.04;100479.80;1658823;85;21195;-64
2021/01/05 12:55:05;;;;;;;36.45;19.50;;;;;;;1.74;77.04;100479.80;1605497;88;21126;-64
2021/01/05 12:57:33;;;;;;;35.88;18.07;;;;;;;1.73;77.19;100472.13;1677645;85;21212;-64
2021/01/05 13:00:05;;;;;;;34.15;16.87;;;;;;;1.70;77.21;100469.73;1658376;86;21195;-64
2021/01/05 13:02:33;;;;;;;34.53;17.70;;;;;;;1.69;77.39;100470.66;1657849;86;21250;-62
2021/01/05 13:05:02;;;;;;;27.00;14.93;;;;;;;1.74;77.34;100472.08;1632583;86;21608;-63
2021/01/05 13:07:31;;;;;;;44.88;24.85;;;;;;;1.78;77.37;100475.30;1603710;88;21206;-62
2021/01/05 13:09:59;;;;;;;49.50;25.75;;;;;;;1.73;77.42;100469.09;1622802;87;21338;-60
2021/01/05 13:12:29;;;;;;;47.50;25.62;;;;;;;1.72;77.46;100464.03;1678232;85;21148;-63
2021/01/05 13:14:59;;;;;;;37.88;18.10;;;;;;;1.74;77.62;100460.48;1657874;85;21728;-63
2021/01/05 13:17:27;;;;;;;35.75;18.90;;;;;;;1.76;77.54;100455.23;1649959;85;21150;-62
2021/01/05 13:19:57;;;;;;;43.05;22.70;;;;;;;1.74;77.58;100455.75;1638194;86;21690;-60
2021/01/05 13:22:29;;;;;;;38.10;21.17;;;;;;;1.69;77.59;100448.30;1661803;84;21299;-61
2021/01/05 13:24:57;;;;;;;42.40;20.27;;;;;;;1.65;77.82;100442.09;1641042;86;21839;-63
2021/01/05 13:27:25;;;;;;;37.50;20.95;;;;;;;1.67;77.93;100442.38;1666502;84;21194;-58
2021/01/05 13:29:55;;;;;;;38.67;20.70;;;;;;;1.68;77.91;100445.78;1666466;86;21130;-59
2021/01/05 13:32:28;;;;;;;47.45;24.57;;;;;;;1.52;78.31;100438.06;1666458;86;21657;-60
2021/01/05 13:34:56;;;;;;;33.78;17.48;;;;;;;1.52;78.31;100438.06;1667518;84;21642;-60
2021/01/05 13:37:24;;;;;;;36.73;18.40;;;;;;;1.56;78.49;100444.72;1665315;84;21185;-59
2021/01/05 13:39:55;;;;;;;29.87;16.77;;;;;;;1.66;78.56;100442.00;1666723;85;21146;-58
2021/01/05 13:42:24;;;;;;;32.28;16.75;;;;;;;1.71;78.45;100450.33;1666505;86;21198;-59
2021/01/05 13:44:53;;;;;;;32.70;15.85;;;;;;;1.72;78.34;100447.28;1667164;84;21296;-61
2021/01/05 13:47:23;;;;;;;29.37;15.90;;;;;;;1.70;78.20;100447.84;1671208;84;21250;-58
2021/01/05 13:49:52;;;;;;;34.65;16.55;;;;;;;1.67;78.37;100450.11;1661719;86;21174;-61
2021/01/05 13:52:26;;;;;;;31.15;16.48;;;;;;;1.69;78.54;100453.45;1664297;85;21601;-60
2021/01/05 13:54:53;;;;;;;28.20;16.60;;;;;;;1.69;78.56;100452.16;1643253;86;21178;-58
2021/01/05 13:57:25;;;;;;;36.03;21.75;;;;;;;1.70;78.36;100451.70;1643565;85;21221;-61
2021/01/05 13:59:53;;;;;;;33.65;17.48;;;;;;;1.66;78.53;100449.73;1686774;85;21229;-60
2021/01/05 14:02:24;;;;;;;30.08;15.63;;;;;;;1.66;78.54;100447.16;1686727;85;21233;-64
2021/01/05 14:04:56;;;;;;;36.60;17.82;;;;;;;1.64;78.71;100443.84;1673668;85;21190;-61
2021/01/05 14:07:28;;;;;;;32.00;17.10;;;;;;;1.62;78.78;100444.39;1660415;85;21163;-61
2021/01/05 14:09:56;;;;;;;32.65;17.37;;;;;;;1.61;78.96;100440.13;1659471;86;21674;-61
2021/01/05 14:12:26;;;;;;;28.25;14.90;;;;;;;1.71;78.98;100446.92;1659183;86;21899;-61
2021/01/05 14:14:55;;;;;;;27.82;15.55;;;;;;;1.71;78.98;100446.92;1660509;86;21159;-63
2021/01/05 14:17:25;;;;;;;28.75;15.60;;;;;;;1.76;78.84;100448.80;1660661;86;21549;-62
2021/01/05 14:19:54;;;;;;;31.52;17.70;;;;;;;1.76;78.75;100441.06;1661432;86;21570;-61
2021/01/05 14:22:24;;;;;;;32.98;18.07;;;;;;;1.80;78.77;100448.55;1661902;86;21158;-60
2021/01/05 14:24:55;;;;;;;32.23;17.65;;;;;;;1.85;78.55;100452.97;1662041;85;21131;-60
2021/01/05 14:27:23;;;;;;;32.65;18.60;;;;;;;1.85;78.55;100452.97;1662515;86;21288;-58
2021/01/05 14:29:52;;;;;;;31.70;17.45;;;;;;;1.78;78.62;100458.09;1660047;86;21598;-59
2021/01/05 14:32:20;;;;;;;54.48;29.95;;;;;;;1.79;78.66;100446.03;1661290;86;21206;-58
2021/01/05 14:34:49;;;;;;;34.88;19.60;;;;;;;1.78;78.70;100432.78;1659539;86;21227;-58
2021/01/05 14:37:19;;;;;;;36.20;20.65;;;;;;;1.76;78.79;100430.30;1660036;86;21651;-58
2021/01/05 14:39:47;;;;;;;36.98;19.62;;;;;;;1.73;78.96;100434.31;1660236;86;21608;-60
2021/01/05 14:42:15;;;;;;;31.97;17.67;;;;;;;1.74;79.03;100439.87;1660206;85;21187;-61
2021/01/05 14:44:45;;;;;;;31.15;16.05;;;;;;;1.74;78.89;100437.72;1660204;86;21223;-62
2021/01/05 14:47:19;;;;;;;30.43;16.80;;;;;;;1.73;78.86;100437.35;1660461;85;21745;-62
